Aviation Digital Data Service (ADDS)

Output produced by TAFs form (0745 UTC 28 February 2017)
found at http://aviationweather.gov/adds/tafs/
 
KASE 280537Z 2806/0106 36004KT 1SM -SN BR VV006 
     TEMPO 2806/2810 1/2SM SN FZFG VV002 
     FM281000 VRB05KT 1SM -SHSN BR OVC015 
     FM281700 32007KT 3SM -SHSN BR OVC025 
     FM282300 31008KT P6SM VCSH OVC025